createdAt,value
2023-02-28T00:00:37.098Z,9.80
2023-02-28T00:03:04.507Z,9.80
2023-02-28T00:05:31.184Z,9.80
2023-02-28T00:07:58.120Z,9.90
2023-02-28T00:10:28.274Z,9.90
2023-02-28T00:12:57.744Z,9.80
2023-02-28T00:15:25.184Z,9.70
2023-02-28T00:17:52.370Z,9.70
2023-02-28T00:20:19.486Z,9.70
2023-02-28T00:22:50.975Z,9.70
2023-02-28T00:25:20.402Z,9.70
2023-02-28T00:27:47.617Z,9.60
2023-02-28T00:30:21.659Z,9.60
2023-02-28T00:32:48.543Z,9.60
2023-02-28T00:35:15.162Z,9.60
2023-02-28T00:37:42.101Z,9.50
2023-02-28T00:40:10.399Z,9.60
2023-02-28T00:42:37.361Z,9.60
2023-02-28T00:45:05.656Z,9.60
2023-02-28T00:47:32.734Z,9.60
2023-02-28T00:49:59.623Z,9.70
2023-02-28T00:52:26.526Z,9.70
2023-02-28T00:54:55.264Z,9.70
2023-02-28T00:57:21.947Z,9.70
2023-02-28T00:59:49.084Z,9.60
2023-02-28T01:02:15.773Z,9.50
2023-02-28T01:04:42.567Z,9.50
2023-02-28T01:07:09.226Z,9.50
2023-02-28T01:09:35.954Z,9.50
2023-02-28T01:12:02.582Z,9.50
2023-02-28T01:14:29.210Z,9.50
2023-02-28T01:16:55.805Z,9.50
2023-02-28T01:19:22.386Z,9.40
2023-02-28T01:21:48.996Z,9.40
2023-02-28T01:24:15.666Z,9.30
2023-02-28T01:26:42.322Z,9.30
2023-02-28T01:29:09.156Z,9.20
2023-02-28T01:31:35.951Z,9.30
2023-02-28T01:34:03.013Z,9.40
2023-02-28T01:36:29.872Z,9.40
2023-02-28T01:38:56.928Z,9.50
2023-02-28T01:41:30.683Z,9.40
2023-02-28T01:44:07.276Z,9.40
2023-02-28T01:46:36.171Z,9.50
2023-02-28T01:49:07.719Z,9.50
2023-02-28T01:51:51.527Z,9.50
2023-02-28T01:54:24.970Z,9.40
2023-02-28T01:56:57.218Z,9.40
2023-02-28T01:59:39.282Z,9.40
2023-02-28T02:02:06.105Z,9.40
2023-02-28T02:04:54.685Z,9.40
2023-02-28T02:07:22.209Z,9.40
2023-02-28T02:09:48.905Z,9.40
2023-02-28T02:12:30.814Z,9.40
2023-02-28T02:15:09.521Z,9.30
2023-02-28T02:17:53.151Z,9.30
2023-02-28T02:20:35.871Z,9.20
2023-02-28T02:23:33.962Z,9.30
2023-02-28T02:26:39.006Z,9.20
2023-02-28T02:29:48.229Z,9.20
2023-02-28T02:32:35.538Z,9.10
2023-02-28T02:35:15.605Z,9.10
2023-02-28T02:38:12.115Z,9.10
2023-02-28T02:40:59.640Z,9.10
2023-02-28T02:43:34.126Z,9.00
2023-02-28T02:46:07.044Z,8.90
2023-02-28T02:48:37.272Z,8.80
2023-02-28T02:51:12.781Z,8.90
2023-02-28T02:53:55.964Z,8.90
2023-02-28T02:56:28.531Z,8.90
2023-02-28T02:59:02.049Z,8.90
2023-02-28T03:01:31.675Z,8.90
2023-02-28T03:04:01.680Z,8.80
2023-02-28T03:06:28.716Z,8.80
2023-02-28T03:08:55.361Z,8.80
2023-02-28T03:11:23.692Z,8.80
2023-02-28T03:13:55.652Z,8.80
2023-02-28T03:16:50.658Z,8.70
2023-02-28T03:19:42.539Z,8.70
2023-02-28T03:22:09.186Z,8.70
2023-02-28T03:25:11.266Z,8.70
2023-02-28T03:28:09.362Z,8.70
2023-02-28T03:30:56.735Z,8.60
2023-02-28T03:33:29.232Z,8.50
2023-02-28T03:36:00.605Z,8.40
2023-02-28T03:38:30.657Z,8.40
2023-02-28T03:41:14.375Z,8.40
2023-02-28T03:43:46.184Z,8.50
2023-02-28T03:46:22.013Z,8.50
2023-02-28T03:49:05.999Z,8.50
2023-02-28T03:51:33.979Z,8.50
2023-02-28T03:54:10.690Z,8.40
2023-02-28T03:57:01.733Z,8.40
2023-02-28T03:59:33.611Z,8.40
2023-02-28T04:02:00.630Z,8.40
2023-02-28T04:04:27.412Z,8.40
2023-02-28T04:07:03.928Z,8.40
2023-02-28T04:09:30.549Z,8.40
2023-02-28T04:11:57.322Z,8.40
2023-02-28T04:14:24.468Z,8.30
2023-02-28T04:16:51.909Z,8.40
2023-02-28T04:19:19.067Z,8.30
2023-02-28T04:21:48.735Z,8.30
2023-02-28T04:24:28.488Z,8.30
2023-02-28T04:26:57.162Z,8.30
2023-02-28T04:29:29.470Z,8.20
2023-02-28T04:31:58.909Z,8.30
2023-02-28T04:34:27.228Z,8.30
2023-02-28T04:37:10.402Z,8.20
2023-02-28T04:39:39.604Z,8.20
2023-02-28T04:42:06.804Z,8.20
2023-02-28T04:44:33.569Z,8.10
2023-02-28T04:47:00.204Z,8.20
2023-02-28T04:49:26.828Z,8.20
2023-02-28T04:51:53.994Z,8.20
2023-02-28T04:54:20.911Z,8.10
2023-02-28T04:56:50.601Z,8.10
2023-02-28T04:59:17.309Z,8.10
2023-02-28T05:01:47.616Z,8.10
2023-02-28T05:04:14.564Z,8.10
2023-02-28T05:06:41.175Z,8.10
2023-02-28T05:09:07.798Z,8.10
2023-02-28T05:11:36.047Z,8.10
2023-02-28T05:14:04.780Z,8.10
2023-02-28T05:16:32.492Z,8.00
2023-02-28T05:18:59.707Z,8.10
2023-02-28T05:21:33.177Z,8.00
2023-02-28T05:24:03.016Z,8.00
2023-02-28T05:26:30.245Z,8.00
2023-02-28T05:28:57.198Z,8.00
2023-02-28T05:31:24.287Z,8.00
2023-02-28T05:33:51.074Z,8.00
2023-02-28T05:36:17.899Z,8.00
2023-02-28T05:38:46.444Z,8.00
2023-02-28T05:41:13.098Z,7.90
2023-02-28T05:43:39.799Z,8.00
2023-02-28T05:46:08.702Z,8.00
2023-02-28T05:48:37.165Z,7.90
2023-02-28T05:51:04.951Z,7.90
2023-02-28T05:53:32.018Z,7.90
2023-02-28T05:55:59.029Z,7.90
2023-02-28T05:58:31.649Z,7.80
2023-02-28T06:00:59.469Z,7.90
2023-02-28T06:03:26.239Z,7.90
2023-02-28T06:05:53.159Z,7.90
2023-02-28T06:08:19.877Z,7.80
2023-02-28T06:10:46.668Z,7.80
2023-02-28T06:13:13.723Z,7.80
2023-02-28T06:15:40.561Z,7.80
2023-02-28T06:18:07.972Z,7.80
2023-02-28T06:20:35.450Z,7.80
2023-02-28T06:23:02.179Z,7.80
2023-02-28T06:25:29.222Z,7.80
2023-02-28T06:27:56.553Z,7.70
2023-02-28T06:30:27.726Z,7.80
2023-02-28T06:32:55.487Z,7.80
2023-02-28T06:35:23.579Z,7.80
2023-02-28T06:37:50.252Z,7.80
2023-02-28T06:40:16.977Z,7.70
2023-02-28T06:42:43.942Z,7.80
2023-02-28T06:45:11.590Z,7.80
2023-02-28T06:47:41.770Z,7.70
2023-02-28T06:50:12.255Z,7.80
2023-02-28T06:52:38.902Z,7.80
2023-02-28T06:55:09.094Z,7.70
2023-02-28T06:57:37.315Z,7.70
2023-02-28T07:00:09.931Z,7.70
2023-02-28T07:02:39.563Z,7.70
2023-02-28T07:05:07.038Z,7.80
2023-02-28T07:07:34.216Z,7.70
2023-02-28T07:10:00.861Z,7.80
2023-02-28T07:12:27.508Z,7.80
2023-02-28T07:14:55.359Z,7.70
2023-02-28T07:17:22.008Z,7.80
2023-02-28T07:19:48.659Z,7.80
2023-02-28T07:22:16.012Z,7.80
2023-02-28T07:24:42.765Z,7.80
2023-02-28T07:27:09.406Z,7.80
2023-02-28T07:29:36.000Z,7.80
2023-02-28T07:32:02.648Z,7.80
2023-02-28T07:34:29.372Z,7.80
2023-02-28T07:36:56.080Z,7.80
2023-02-28T07:39:23.007Z,7.80
2023-02-28T07:41:49.594Z,7.90
2023-02-28T07:44:16.775Z,7.80
2023-02-28T07:46:48.048Z,7.90
2023-02-28T07:49:14.862Z,7.90
2023-02-28T07:51:41.464Z,7.90
2023-02-28T07:54:08.642Z,7.90
2023-02-28T07:56:35.257Z,8.00
2023-02-28T07:59:02.639Z,7.90
2023-02-28T08:01:29.709Z,8.00
2023-02-28T08:03:57.868Z,8.00
2023-02-28T08:06:25.941Z,7.90
2023-02-28T08:08:53.614Z,8.00
2023-02-28T08:11:20.269Z,8.00
2023-02-28T08:13:46.900Z,8.10
2023-02-28T08:16:22.757Z,8.10
2023-02-28T08:21:40.902Z,8.40
2023-02-28T08:24:07.880Z,8.40
2023-02-28T08:26:34.542Z,8.40
2023-02-28T08:29:01.810Z,8.40
2023-02-28T08:31:28.923Z,8.40
2023-02-28T08:33:59.599Z,8.40
2023-02-28T08:36:27.045Z,8.50
2023-02-28T08:38:53.820Z,8.50
2023-02-28T08:41:20.422Z,8.60
2023-02-28T08:43:47.006Z,8.50
2023-02-28T08:46:14.954Z,8.60
2023-02-28T08:48:42.440Z,8.70
2023-02-28T08:51:12.590Z,8.60
2023-02-28T08:53:40.602Z,8.70
2023-02-28T08:56:13.532Z,8.90
2023-02-28T08:58:40.783Z,8.90
2023-02-28T09:01:16.076Z,8.90
2023-02-28T09:03:43.598Z,8.80
2023-02-28T09:06:12.266Z,8.80
2023-02-28T09:08:39.611Z,8.70
2023-02-28T09:11:06.647Z,8.70
2023-02-28T09:13:33.633Z,8.70
2023-02-28T09:16:01.961Z,8.80
2023-02-28T09:18:29.377Z,8.90
2023-02-28T09:20:56.352Z,8.90
2023-02-28T09:23:23.039Z,9.00
2023-02-28T09:25:51.963Z,9.00
2023-02-28T09:28:18.987Z,9.10
2023-02-28T09:30:47.855Z,9.20
2023-02-28T09:33:15.169Z,9.20
2023-02-28T09:35:42.129Z,9.10
2023-02-28T09:38:08.866Z,9.20
2023-02-28T09:40:46.964Z,9.20
2023-02-28T09:43:16.318Z,9.30
2023-02-28T09:45:48.753Z,9.40
2023-02-28T09:48:28.738Z,9.40
2023-02-28T09:51:03.447Z,9.40
2023-02-28T09:53:34.951Z,9.40
2023-02-28T09:56:15.910Z,9.50
2023-02-28T09:59:11.181Z,9.60
2023-02-28T10:02:18.298Z,9.40
2023-02-28T10:05:03.212Z,9.50
2023-02-28T10:07:47.789Z,9.50
2023-02-28T10:10:32.772Z,9.70
2023-02-28T10:13:03.435Z,9.60
2023-02-28T10:15:33.354Z,9.60
2023-02-28T10:18:09.162Z,9.60
2023-02-28T10:20:40.110Z,9.50
2023-02-28T10:23:28.028Z,9.50
2023-02-28T10:26:10.333Z,9.60
2023-02-28T10:28:37.903Z,9.80
2023-02-28T10:31:19.872Z,10.00
2023-02-28T10:33:46.720Z,10.30
2023-02-28T10:36:17.591Z,10.50
2023-02-28T10:38:45.968Z,10.60
2023-02-28T10:41:28.685Z,10.60
2023-02-28T10:44:24.269Z,10.50
2023-02-28T10:46:52.137Z,10.60
2023-02-28T10:49:23.631Z,10.70
2023-02-28T10:51:57.954Z,10.80
2023-02-28T10:54:36.010Z,11.00
2023-02-28T10:57:14.425Z,11.10
2023-02-28T10:59:41.040Z,11.10
2023-02-28T11:02:31.283Z,10.90
2023-02-28T11:04:57.957Z,11.00
2023-02-28T11:07:27.817Z,11.00
2023-02-28T11:09:59.119Z,10.90
2023-02-28T11:12:43.421Z,10.90
2023-02-28T11:15:25.031Z,11.00
2023-02-28T11:18:33.315Z,11.00
2023-02-28T11:21:02.338Z,11.00
2023-02-28T11:23:32.826Z,11.10
2023-02-28T11:26:01.785Z,11.10
2023-02-28T11:28:37.219Z,11.20
2023-02-28T11:31:12.682Z,11.30
2023-02-28T11:33:45.977Z,11.40
2023-02-28T11:36:19.465Z,11.30
2023-02-28T11:38:48.579Z,11.50
2023-02-28T11:41:46.589Z,11.50
2023-02-28T11:44:33.659Z,11.50
2023-02-28T11:47:10.345Z,11.50
2023-02-28T11:49:54.947Z,11.50
2023-02-28T11:52:38.481Z,11.60
2023-02-28T11:55:20.469Z,11.60
2023-02-28T11:57:59.399Z,11.70
2023-02-28T12:00:29.113Z,11.80
2023-02-28T12:03:18.968Z,11.80
2023-02-28T12:05:55.765Z,11.90
2023-02-28T12:08:27.480Z,12.00
2023-02-28T12:11:28.367Z,12.10
2023-02-28T12:14:07.398Z,12.20
2023-02-28T12:16:47.163Z,12.10
2023-02-28T12:19:22.122Z,12.10
2023-02-28T12:22:10.560Z,12.30
2023-02-28T12:24:43.090Z,12.50
2023-02-28T12:27:15.728Z,12.30
2023-02-28T12:29:55.158Z,12.20
2023-02-28T12:32:33.160Z,12.30
2023-02-28T12:35:22.957Z,12.30
2023-02-28T12:38:20.352Z,12.30
2023-02-28T12:41:10.371Z,12.40
2023-02-28T12:43:43.514Z,12.60
2023-02-28T12:46:24.122Z,12.80
2023-02-28T12:48:57.937Z,12.60
2023-02-28T12:51:26.616Z,12.60
2023-02-28T12:54:10.642Z,12.70
2023-02-28T12:56:46.506Z,12.70
2023-02-28T12:59:37.252Z,12.80
2023-02-28T13:02:29.903Z,12.80
2023-02-28T13:05:15.236Z,12.90
2023-02-28T13:07:53.929Z,12.90
2023-02-28T13:10:20.753Z,12.90
2023-02-28T13:12:52.685Z,12.80
2023-02-28T13:15:29.596Z,12.70
2023-02-28T13:17:59.780Z,12.80
2023-02-28T13:20:32.171Z,13.00
2023-02-28T13:22:58.782Z,12.90
2023-02-28T13:25:34.642Z,12.90
2023-02-28T13:28:05.068Z,13.00
2023-02-28T13:30:55.332Z,12.90
2023-02-28T13:33:36.026Z,12.90
2023-02-28T13:36:14.557Z,13.10
2023-02-28T13:38:43.435Z,13.20
2023-02-28T13:41:31.853Z,13.20
2023-02-28T13:44:20.033Z,13.20
2023-02-28T13:46:49.908Z,13.10
2023-02-28T13:49:26.008Z,13.20
2023-02-28T13:52:07.709Z,13.00
2023-02-28T13:54:39.908Z,13.10
2023-02-28T13:57:28.356Z,13.20
2023-02-28T14:00:29.723Z,13.10
2023-02-28T14:03:23.288Z,13.10
2023-02-28T14:06:22.551Z,13.20
2023-02-28T14:09:00.298Z,13.20
2023-02-28T14:11:38.741Z,13.20
2023-02-28T14:14:07.106Z,13.10
2023-02-28T14:16:41.585Z,13.20
2023-02-28T14:19:30.376Z,13.10
2023-02-28T14:22:24.102Z,13.20
2023-02-28T14:25:25.832Z,13.30
2023-02-28T14:28:19.770Z,13.50
2023-02-28T14:31:05.409Z,13.50
2023-02-28T14:33:47.172Z,13.80
2023-02-28T14:36:29.078Z,13.70
2023-02-28T14:39:02.447Z,13.50
2023-02-28T14:41:39.559Z,13.30
2023-02-28T14:44:25.203Z,13.20
2023-02-28T14:47:06.464Z,13.30
2023-02-28T14:49:40.206Z,13.30
2023-02-28T14:52:18.203Z,13.50
2023-02-28T14:54:46.356Z,13.60
2023-02-28T14:57:27.844Z,13.50
2023-02-28T15:00:17.395Z,13.50
2023-02-28T15:02:44.205Z,13.50
2023-02-28T15:05:10.741Z,13.40
2023-02-28T15:07:37.742Z,13.30
2023-02-28T15:10:31.524Z,13.20
2023-02-28T15:13:01.359Z,13.30
2023-02-28T15:16:01.946Z,13.30
2023-02-28T15:18:49.211Z,13.20
2023-02-28T15:21:20.854Z,13.20
2023-02-28T15:23:55.954Z,13.20
2023-02-28T15:26:26.513Z,13.20
2023-02-28T15:29:01.088Z,13.20
2023-02-28T15:31:39.034Z,13.10
2023-02-28T15:34:21.056Z,13.10
2023-02-28T15:36:48.799Z,13.30
2023-02-28T15:39:30.637Z,13.30
2023-02-28T15:42:20.325Z,13.30
2023-02-28T15:44:47.160Z,13.00
2023-02-28T15:47:23.210Z,13.00
2023-02-28T15:49:53.766Z,12.90
2023-02-28T15:52:27.136Z,12.90
2023-02-28T15:54:53.911Z,12.90
2023-02-28T15:57:25.299Z,12.80
2023-02-28T15:59:56.466Z,12.70
2023-02-28T16:02:35.643Z,12.70
2023-02-28T16:05:08.378Z,12.70
2023-02-28T16:07:44.922Z,12.50
2023-02-28T16:10:15.007Z,12.40
2023-02-28T16:12:42.667Z,12.40
2023-02-28T16:15:19.341Z,12.40
2023-02-28T16:17:47.511Z,12.40
2023-02-28T16:20:20.298Z,12.40
2023-02-28T16:22:46.969Z,12.40
2023-02-28T16:25:20.315Z,12.40
2023-02-28T16:27:51.476Z,12.40
2023-02-28T16:30:27.217Z,12.40
2023-02-28T16:32:56.115Z,12.40
2023-02-28T16:35:23.266Z,12.40
2023-02-28T16:37:51.849Z,12.30
2023-02-28T16:40:22.903Z,12.30
2023-02-28T16:42:55.874Z,12.30
2023-02-28T16:45:26.189Z,12.30
2023-02-28T16:47:56.652Z,12.30
2023-02-28T16:50:30.030Z,12.30
2023-02-28T16:52:57.073Z,12.20
2023-02-28T16:55:25.811Z,12.10
2023-02-28T16:57:55.587Z,12.10
2023-02-28T17:00:22.557Z,12.10
2023-02-28T17:02:56.995Z,12.10
2023-02-28T17:05:24.551Z,12.00
2023-02-28T17:07:51.399Z,12.00
2023-02-28T17:10:23.991Z,12.00
2023-02-28T17:12:51.180Z,11.90
2023-02-28T17:15:20.108Z,12.00
2023-02-28T17:17:48.267Z,11.90
2023-02-28T17:20:23.222Z,11.90
2023-02-28T17:22:50.838Z,12.00
2023-02-28T17:25:17.850Z,11.90
2023-02-28T17:27:44.557Z,11.90
2023-02-28T17:30:16.429Z,11.90
2023-02-28T17:32:43.052Z,12.00
2023-02-28T17:35:10.192Z,12.00
2023-02-28T17:37:36.953Z,12.00
2023-02-28T17:40:04.577Z,12.00
2023-02-28T17:42:31.312Z,11.90
2023-02-28T17:44:57.896Z,11.80
2023-02-28T17:47:24.580Z,11.80
2023-02-28T17:49:51.180Z,11.80
2023-02-28T17:52:17.813Z,11.70
2023-02-28T17:54:44.683Z,11.60
2023-02-28T17:57:16.595Z,11.60
2023-02-28T17:59:43.651Z,11.50
2023-02-28T18:02:14.225Z,11.40
2023-02-28T18:04:40.984Z,11.40
2023-02-28T18:07:11.963Z,11.40
2023-02-28T18:09:38.685Z,11.40
2023-02-28T18:12:05.603Z,11.40
2023-02-28T18:14:32.335Z,11.40
2023-02-28T18:16:58.941Z,11.40
2023-02-28T18:19:25.545Z,11.40
2023-02-28T18:21:53.711Z,11.40
2023-02-28T18:24:22.654Z,11.40
2023-02-28T18:26:49.241Z,11.30
2023-02-28T18:29:22.079Z,11.30
2023-02-28T18:31:49.883Z,11.30
2023-02-28T18:34:16.975Z,11.30
2023-02-28T18:36:43.661Z,11.40
2023-02-28T18:39:12.009Z,11.40
2023-02-28T18:41:39.046Z,11.50
2023-02-28T18:44:18.811Z,11.40
2023-02-28T18:46:46.014Z,11.40
2023-02-28T18:49:12.710Z,11.40
2023-02-28T18:51:39.411Z,11.30
2023-02-28T18:54:06.178Z,11.30
2023-02-28T18:56:32.998Z,11.30
2023-02-28T18:58:59.675Z,11.30
2023-02-28T19:01:30.056Z,11.30
2023-02-28T19:04:00.957Z,11.30
2023-02-28T19:06:29.703Z,11.20
2023-02-28T19:09:01.708Z,11.10
2023-02-28T19:11:28.590Z,11.10
2023-02-28T19:13:55.774Z,11.10
2023-02-28T19:16:23.295Z,11.00
2023-02-28T19:18:50.263Z,11.00
2023-02-28T19:21:19.162Z,11.00
2023-02-28T19:23:45.764Z,10.90
2023-02-28T19:26:23.424Z,10.90
2023-02-28T19:28:50.113Z,10.90
2023-02-28T19:31:20.132Z,10.90
2023-02-28T19:33:47.041Z,10.90
2023-02-28T19:36:15.109Z,10.90
2023-02-28T19:38:44.451Z,10.90
2023-02-28T19:41:13.260Z,10.90
2023-02-28T19:43:40.307Z,10.90
2023-02-28T19:46:09.370Z,10.90
2023-02-28T19:48:36.602Z,10.90
2023-02-28T19:51:06.874Z,10.80
2023-02-28T19:53:35.929Z,10.80
2023-02-28T19:56:04.234Z,10.80
2023-02-28T19:58:31.802Z,10.70
2023-02-28T20:00:58.501Z,10.80
2023-02-28T20:03:25.100Z,10.80
2023-02-28T20:06:03.728Z,10.80
2023-02-28T20:08:30.384Z,10.80
2023-02-28T20:11:03.409Z,10.70
2023-02-28T20:13:30.531Z,10.70
2023-02-28T20:16:00.574Z,10.70
2023-02-28T20:18:27.188Z,10.70
2023-02-28T20:20:54.161Z,10.60
2023-02-28T20:23:20.824Z,10.60
2023-02-28T20:25:47.587Z,10.60
2023-02-28T20:28:14.618Z,10.50
2023-02-28T20:30:42.212Z,10.50
2023-02-28T20:33:08.898Z,10.50
2023-02-28T20:35:35.554Z,10.50
2023-02-28T20:38:02.204Z,10.50
2023-02-28T20:40:28.800Z,10.40
2023-02-28T20:42:55.474Z,10.40
2023-02-28T20:45:22.085Z,10.30
2023-02-28T20:47:48.687Z,10.30
2023-02-28T20:50:17.031Z,10.30
2023-02-28T20:52:46.947Z,10.30
2023-02-28T20:55:13.967Z,10.30
2023-02-28T20:57:40.693Z,10.30
2023-02-28T21:00:09.618Z,10.30
2023-02-28T21:02:36.748Z,10.30
2023-02-28T21:05:04.395Z,10.20
2023-02-28T21:07:30.977Z,10.10
2023-02-28T21:09:57.580Z,10.00
2023-02-28T21:12:24.214Z,10.00
2023-02-28T21:14:50.813Z,10.10
2023-02-28T21:17:17.422Z,10.10
2023-02-28T21:19:44.048Z,10.20
2023-02-28T21:22:10.630Z,10.10
2023-02-28T21:24:37.243Z,9.90
2023-02-28T21:27:03.873Z,9.90
2023-02-28T21:29:30.526Z,10.00
2023-02-28T21:31:57.194Z,10.10
2023-02-28T21:34:24.393Z,10.10
2023-02-28T21:36:51.057Z,10.10
2023-02-28T21:39:25.669Z,10.10
2023-02-28T21:41:53.299Z,10.00
2023-02-28T21:44:21.268Z,10.00
2023-02-28T21:46:52.094Z,10.00
2023-02-28T21:49:18.897Z,10.00
2023-02-28T21:51:45.619Z,9.90
2023-02-28T21:54:12.391Z,9.90
2023-02-28T21:56:39.397Z,9.90
2023-02-28T21:59:09.218Z,9.90
2023-02-28T22:01:39.184Z,9.90
2023-02-28T22:04:09.095Z,9.90
2023-02-28T22:06:39.361Z,9.90
2023-02-28T22:09:08.548Z,9.90
2023-02-28T22:11:36.841Z,9.90
2023-02-28T22:14:03.528Z,9.80
2023-02-28T22:16:35.234Z,9.80
2023-02-28T22:19:08.197Z,9.80
2023-02-28T22:21:35.773Z,9.70
2023-02-28T22:24:02.969Z,9.70
2023-02-28T22:26:30.076Z,9.70
2023-02-28T22:28:57.205Z,9.70
2023-02-28T22:31:29.380Z,9.70
2023-02-28T22:34:02.781Z,9.80
2023-02-28T22:36:30.546Z,9.80
2023-02-28T22:38:58.512Z,9.70
2023-02-28T22:41:26.506Z,9.70
2023-02-28T22:43:56.029Z,9.70
2023-02-28T22:46:24.537Z,9.70
2023-02-28T22:48:51.784Z,9.70
2023-02-28T22:51:21.974Z,9.60
2023-02-28T22:53:50.050Z,9.60
2023-02-28T22:56:18.588Z,9.60
2023-02-28T22:58:50.406Z,9.60
2023-02-28T23:01:17.897Z,9.60
2023-02-28T23:03:44.928Z,9.60
2023-02-28T23:06:16.005Z,9.50
2023-02-28T23:08:43.622Z,9.50
2023-02-28T23:11:16.746Z,9.50
2023-02-28T23:13:43.672Z,9.40
2023-02-28T23:16:10.357Z,9.40
2023-02-28T23:18:37.002Z,9.40
2023-02-28T23:21:03.832Z,9.40
2023-02-28T23:23:30.461Z,9.30
2023-02-28T23:25:57.049Z,9.40
2023-02-28T23:28:23.639Z,9.40
2023-02-28T23:30:50.291Z,9.40
2023-02-28T23:33:16.902Z,9.30
2023-02-28T23:35:43.536Z,9.30
2023-02-28T23:38:10.169Z,9.30
2023-02-28T23:40:36.794Z,9.20
2023-02-28T23:43:03.383Z,9.20
2023-02-28T23:45:30.039Z,9.10
2023-02-28T23:47:56.647Z,9.10
2023-02-28T23:50:23.251Z,9.10
2023-02-28T23:52:50.105Z,9.10
2023-02-28T23:55:16.751Z,9.10
2023-02-28T23:57:43.316Z,9.10
